Time;durP1;ratioP1;P1;durP2;ratioP2;P2;SDS_P1;SDS_P2;PMS_P1;PMS_P2;Temp;Humidity;BMP_temperature;BMP_pressure;BME280_temperature;BME280_humidity;BME280_pressure;Samples;Min_cycle;Max_cycle;Signal;HPM_P1;HPM_P2
2023/12/10 00:01:18;;;;;;;8.05;7.45;;;3.30;99.90;;;;;;5074734;28;20229;-72
2023/12/10 00:03:45;;;;;;;8.23;7.53;;;3.20;99.90;;;;;;5072906;28;20298;-71
2023/12/10 00:06:12;;;;;;;8.48;7.78;;;3.30;99.90;;;;;;5071284;28;20621;-72
2023/12/10 00:08:40;;;;;;;8.88;8.18;;;3.20;99.90;;;;;;5072296;28;20226;-72
2023/12/10 00:11:09;;;;;;;8.98;8.27;;;3.20;99.90;;;;;;5077102;28;20792;-71
2023/12/10 00:13:36;;;;;;;7.97;7.38;;;3.20;99.90;;;;;;5074242;28;20776;-72
2023/12/10 00:16:04;;;;;;;9.20;8.30;;;3.20;99.90;;;;;;5078393;28;20205;-71
2023/12/10 00:18:31;;;;;;;10.35;9.27;;;3.20;99.90;;;;;;5071955;28;20927;-72
2023/12/10 00:20:59;;;;;;;9.10;8.30;;;3.10;99.90;;;;;;5078673;28;20303;-71
2023/12/10 00:23:28;;;;;;;9.65;8.75;;;2.90;99.90;;;;;;5076489;28;20313;-71
2023/12/10 00:25:55;;;;;;;8.48;7.72;;;2.80;99.90;;;;;;5079900;28;20205;-72
2023/12/10 00:28:24;;;;;;;9.05;8.23;;;2.80;99.90;;;;;;5077915;28;20201;-72
2023/12/10 00:30:51;;;;;;;8.45;7.68;;;2.80;99.90;;;;;;5075284;28;20217;-72
2023/12/10 00:33:19;;;;;;;8.82;8.05;;;2.90;99.90;;;;;;5074474;28;20198;-72
2023/12/10 00:35:46;;;;;;;9.95;9.00;;;2.90;99.90;;;;;;5080545;28;20197;-71
2023/12/10 00:38:14;;;;;;;9.07;8.27;;;2.90;99.90;;;;;;5082208;28;21450;-72
2023/12/10 00:40:41;;;;;;;9.65;8.85;;;2.90;99.90;;;;;;5082302;28;20234;-72
2023/12/10 00:43:08;;;;;;;10.35;9.48;;;2.90;99.90;;;;;;5076812;28;20202;-72
2023/12/10 00:45:37;;;;;;;10.43;9.52;;;2.90;99.90;;;;;;5082386;28;20250;-71
2023/12/10 00:48:04;;;;;;;9.55;8.65;;;2.80;99.90;;;;;;5074978;28;20698;-72
2023/12/10 00:50:31;;;;;;;9.98;9.18;;;2.80;99.90;;;;;;5080337;28;20505;-71
2023/12/10 00:52:59;;;;;;;9.27;8.55;;;2.70;99.90;;;;;;5079434;28;20197;-71
2023/12/10 00:55:26;;;;;;;9.15;8.25;;;2.80;99.90;;;;;;5075153;28;20739;-73
2023/12/10 00:57:53;;;;;;;8.63;7.93;;;2.80;99.90;;;;;;5074972;28;20304;-72
2023/12/10 01:00:21;;;;;;;8.85;8.15;;;2.80;99.90;;;;;;5078366;28;20261;-73
2023/12/10 01:02:50;;;;;;;8.45;7.85;;;2.90;99.90;;;;;;5079245;28;20289;-72
2023/12/10 01:05:17;;;;;;;8.70;8.00;;;2.90;99.90;;;;;;5082057;28;20210;-73
2023/12/10 01:07:44;;;;;;;8.10;7.50;;;3.00;99.90;;;;;;5085700;28;20194;-73
2023/12/10 01:10:12;;;;;;;9.10;8.40;;;3.00;99.90;;;;;;5081346;28;20240;-72
2023/12/10 01:12:39;;;;;;;8.95;8.15;;;3.00;99.90;;;;;;5083237;28;20212;-72
2023/12/10 01:15:08;;;;;;;9.63;8.73;;;3.10;99.90;;;;;;5085398;28;20205;-73
2023/12/10 01:17:35;;;;;;;9.07;8.38;;;3.10;99.90;;;;;;5085458;28;20209;-73
2023/12/10 01:20:04;;;;;;;9.05;8.35;;;3.10;99.90;;;;;;5083785;28;20252;-72
2023/12/10 01:22:32;;;;;;;9.27;8.50;;;3.00;99.90;;;;;;5082890;28;20205;-72
2023/12/10 01:25:00;;;;;;;11.95;9.40;;;3.00;99.90;;;;;;5080284;28;20228;-72
2023/12/10 01:27:27;;;;;;;318.55;22.17;;;2.90;99.90;;;;;;5077569;28;20201;-73
2023/12/10 01:29:55;;;;;;;96.68;11.48;;;2.70;99.90;;;;;;5079806;28;20222;-72
2023/12/10 01:32:22;;;;;;;9.65;8.85;;;2.50;99.90;;;;;;5082557;28;20256;-73
2023/12/10 01:34:49;;;;;;;8.90;8.10;;;2.40;99.90;;;;;;5083959;28;20613;-73
2023/12/10 01:37:18;;;;;;;9.25;8.38;;;2.40;99.90;;;;;;5087100;28;20218;-72
2023/12/10 01:39:45;;;;;;;8.32;7.63;;;2.40;99.90;;;;;;5081251;28;20222;-72
2023/12/10 01:42:13;;;;;;;8.25;7.65;;;2.50;99.90;;;;;;5083307;28;20232;-72
2023/12/10 01:44:40;;;;;;;8.85;8.13;;;2.60;99.90;;;;;;5083582;28;20218;-71
2023/12/10 01:47:11;;;;;;;10.68;9.77;;;2.60;99.90;;;;;;5083810;28;20189;-72
2023/12/10 01:49:39;;;;;;;13.18;11.98;;;2.70;99.90;;;;;;5082735;28;20221;-72
2023/12/10 01:52:08;;;;;;;10.48;9.68;;;2.80;99.90;;;;;;5083684;28;20222;-72
2023/12/10 01:54:36;;;;;;;10.35;9.48;;;2.80;99.90;;;;;;5082779;28;20441;-71
2023/12/10 01:57:07;;;;;;;11.68;10.68;;;2.80;99.90;;;;;;5087957;28;20209;-71
2023/12/10 01:59:36;;;;;;;13.85;12.57;;;2.80;99.90;;;;;;5078929;28;20634;-72
2023/12/10 02:02:04;;;;;;;12.07;10.93;;;2.80;99.90;;;;;;5084633;28;20228;-72
2023/12/10 02:04:31;;;;;;;10.95;9.95;;;2.80;99.90;;;;;;5081131;28;20221;-72
2023/12/10 02:06:58;;;;;;;11.23;10.23;;;2.70;99.90;;;;;;5078532;28;20206;-72
2023/12/10 02:09:26;;;;;;;10.43;9.52;;;2.70;99.90;;;;;;5077765;28;20232;-72
2023/12/10 02:11:56;;;;;;;11.00;10.10;;;2.60;99.90;;;;;;5085137;28;20221;-72
2023/12/10 02:14:24;;;;;;;9.45;8.75;;;2.70;99.90;;;;;;5078349;28;20228;-72
2023/12/10 02:16:51;;;;;;;9.80;9.02;;;2.70;99.90;;;;;;5078229;28;20193;-72
2023/12/10 02:19:18;;;;;;;10.02;9.23;;;2.70;99.90;;;;;;5078649;28;20440;-72
2023/12/10 02:21:48;;;;;;;10.02;9.13;;;2.70;99.90;;;;;;5081837;28;20260;-72
2023/12/10 02:24:23;;;;;;;9.13;8.32;;;2.70;99.90;;;;;;5080153;28;20221;-71
2023/12/10 02:26:52;;;;;;;9.18;8.38;;;2.70;99.90;;;;;;5082265;28;20208;-71
2023/12/10 02:29:19;;;;;;;9.93;9.05;;;2.70;99.90;;;;;;5080254;28;20244;-71
2023/12/10 02:31:47;;;;;;;9.82;8.93;;;2.70;99.90;;;;;;5097385;28;20466;-71
2023/12/10 02:34:14;;;;;;;9.32;8.52;;;2.80;99.90;;;;;;5075826;28;20228;-71
2023/12/10 02:36:41;;;;;;;8.70;8.00;;;2.80;99.90;;;;;;5080812;28;20608;-72
2023/12/10 02:39:10;;;;;;;8.73;8.07;;;2.80;99.90;;;;;;5076752;28;20335;-72
2023/12/10 02:41:38;;;;;;;8.38;7.68;;;2.80;99.90;;;;;;5083293;28;20457;-71
2023/12/10 02:44:07;;;;;;;8.52;7.82;;;2.90;99.90;;;;;;5080125;28;21182;-71
2023/12/10 02:46:34;;;;;;;9.60;8.80;;;3.00;99.90;;;;;;5081242;28;22074;-71
2023/12/10 02:49:01;;;;;;;8.80;8.10;;;3.00;99.90;;;;;;5081817;28;20221;-71
2023/12/10 02:51:29;;;;;;;9.70;8.90;;;3.00;99.90;;;;;;5079971;28;20779;-72
2023/12/10 02:53:56;;;;;;;9.35;8.65;;;3.00;99.90;;;;;;5082882;28;20217;-72
2023/12/10 02:56:23;;;;;;;8.82;8.13;;;2.90;99.90;;;;;;5076600;28;20205;-72
2023/12/10 02:58:50;;;;;;;8.43;7.82;;;2.90;99.90;;;;;;5077176;28;20245;-72
2023/12/10 03:01:19;;;;;;;9.15;8.35;;;3.00;99.90;;;;;;5078822;28;20251;-72
2023/12/10 03:03:46;;;;;;;9.23;8.38;;;3.00;99.90;;;;;;5075512;28;20225;-72
2023/12/10 03:06:14;;;;;;;9.95;9.05;;;3.00;99.90;;;;;;5077541;28;20197;-72
2023/12/10 03:08:41;;;;;;;9.68;8.77;;;2.90;99.90;;;;;;5077264;28;20220;-71
2023/12/10 03:11:09;;;;;;;9.40;8.60;;;2.90;99.90;;;;;;5079321;28;20224;-71
2023/12/10 03:13:36;;;;;;;10.18;9.27;;;2.80;99.90;;;;;;5078340;28;21175;-71
2023/12/10 03:16:03;;;;;;;9.60;8.80;;;2.80;99.90;;;;;;5078756;28;20201;-72
2023/12/10 03:18:32;;;;;;;9.70;8.80;;;2.70;99.90;;;;;;5078235;28;20214;-72
2023/12/10 03:20:59;;;;;;;8.27;7.57;;;2.70;99.90;;;;;;5073320;28;22178;-72
2023/12/10 03:23:27;;;;;;;8.45;7.75;;;2.70;99.90;;;;;;5077063;28;20213;-72
2023/12/10 03:25:54;;;;;;;8.85;8.15;;;2.80;99.90;;;;;;5073201;28;20210;-72
2023/12/10 03:28:21;;;;;;;8.88;8.18;;;2.80;99.90;;;;;;5077290;28;20680;-71
2023/12/10 03:30:48;;;;;;;9.48;8.75;;;2.80;99.90;;;;;;5078578;28;20590;-72
2023/12/10 03:33:16;;;;;;;9.13;8.43;;;2.90;99.90;;;;;;5078054;28;20206;-71
2023/12/10 03:35:45;;;;;;;8.43;7.72;;;2.80;99.90;;;;;;5073778;28;20297;-71
2023/12/10 03:38:12;;;;;;;9.23;8.52;;;2.80;99.90;;;;;;5073021;28;20218;-71
2023/12/10 03:40:40;;;;;;;8.85;8.15;;;2.70;99.90;;;;;;5077781;28;21418;-72
2023/12/10 03:43:07;;;;;;;9.00;8.30;;;2.70;99.90;;;;;;5076727;28;20284;-72
2023/12/10 03:45:35;;;;;;;9.05;8.30;;;2.70;99.90;;;;;;5075720;28;20557;-72
2023/12/10 03:48:02;;;;;;;8.95;8.25;;;2.60;99.90;;;;;;5079857;28;20202;-71
2023/12/10 03:50:30;;;;;;;10.70;9.77;;;2.60;99.90;;;;;;5074671;28;20675;-72
2023/12/10 03:52:59;;;;;;;9.75;8.98;;;2.50;99.90;;;;;;5076043;28;20208;-71
2023/12/10 03:55:26;;;;;;;10.35;9.48;;;2.30;99.90;;;;;;5076284;28;20222;-71
2023/12/10 03:57:53;;;;;;;9.77;8.98;;;2.30;99.90;;;;;;5075340;28;20213;-72
2023/12/10 04:00:21;;;;;;;10.52;9.68;;;2.20;99.90;;;;;;5077491;28;20225;-72
2023/12/10 04:02:48;;;;;;;11.88;10.88;;;2.20;99.90;;;;;;5075290;28;20201;-72
2023/12/10 04:05:15;;;;;;;11.25;10.27;;;2.10;99.90;;;;;;5074232;28;20226;-72
2023/12/10 04:07:42;;;;;;;11.45;10.45;;;2.00;99.90;;;;;;5076856;28;20698;-72
2023/12/10 04:10:12;;;;;;;10.60;9.73;;;2.00;99.90;;;;;;5080068;28;20716;-72
2023/12/10 04:12:39;;;;;;;10.13;9.32;;;1.90;99.90;;;;;;5080314;28;20224;-72
2023/12/10 04:15:08;;;;;;;9.45;8.65;;;1.90;99.90;;;;;;5077256;28;20259;-72
2023/12/10 04:17:35;;;;;;;12.20;11.20;;;1.90;99.90;;;;;;5077087;28;20206;-72
2023/12/10 04:20:02;;;;;;;12.45;11.35;;;1.90;99.90;;;;;;5074441;28;20226;-72
2023/12/10 04:22:30;;;;;;;12.18;11.07;;;1.90;99.90;;;;;;5075891;28;20669;-72
2023/12/10 04:24:57;;;;;;;13.00;11.82;;;1.80;99.90;;;;;;5078362;28;20626;-72
2023/12/10 04:27:26;;;;;;;10.32;9.52;;;1.80;99.90;;;;;;5079348;28;20201;-72
2023/12/10 04:29:54;;;;;;;12.45;11.45;;;1.80;99.90;;;;;;5078204;28;20295;-72
2023/12/10 04:32:21;;;;;;;14.02;12.85;;;1.90;99.90;;;;;;5072089;28;20232;-72
2023/12/10 04:34:49;;;;;;;12.23;11.25;;;1.90;99.90;;;;;;5074524;28;20228;-71
2023/12/10 04:37:16;;;;;;;11.45;10.48;;;2.00;99.90;;;;;;5075328;28;20197;-71
2023/12/10 04:39:45;;;;;;;12.45;11.38;;;2.00;99.90;;;;;;5074310;28;20230;-71
2023/12/10 04:42:12;;;;;;;9.68;8.88;;;2.00;99.90;;;;;;5075693;28;20510;-71
2023/12/10 04:44:40;;;;;;;9.43;8.73;;;2.10;99.90;;;;;;5074011;28;20699;-71
2023/12/10 04:47:08;;;;;;;8.50;7.88;;;2.10;99.90;;;;;;5074149;28;20814;-71
2023/12/10 04:49:35;;;;;;;9.30;8.60;;;2.10;99.90;;;;;;5071443;28;20214;-71
2023/12/10 04:52:03;;;;;;;9.07;8.38;;;2.10;99.90;;;;;;5077233;28;20851;-71
2023/12/10 04:54:30;;;;;;;12.00;10.90;;;2.10;99.90;;;;;;5079543;28;20505;-71
2023/12/10 04:56:57;;;;;;;10.38;9.57;;;2.10;99.90;;;;;;5080106;28;20213;-71
2023/12/10 04:59:26;;;;;;;34.20;13.05;;;2.10;99.90;;;;;;5072394;28;20405;-71
2023/12/10 05:01:55;;;;;;;14.77;13.43;;;1.90;99.90;;;;;;5076842;28;20695;-71
2023/12/10 05:04:22;;;;;;;13.40;12.20;;;1.60;99.90;;;;;;5078562;28;20222;-71
2023/12/10 05:06:49;;;;;;;11.82;10.82;;;1.50;99.90;;;;;;5073575;28;20202;-71
2023/12/10 05:09:16;;;;;;;11.65;10.68;;;1.50;99.90;;;;;;5077572;28;20225;-71
2023/12/10 05:11:44;;;;;;;12.80;11.70;;;1.50;99.90;;;;;;5076889;28;25819;-71
2023/12/10 05:14:11;;;;;;;10.80;9.90;;;1.60;99.90;;;;;;5079493;28;20219;-71
2023/12/10 05:16:38;;;;;;;10.85;9.95;;;1.60;99.90;;;;;;5079140;28;20208;-71
2023/12/10 05:19:07;;;;;;;10.13;9.23;;;1.70;99.90;;;;;;5078407;28;20217;-71
2023/12/10 05:21:34;;;;;;;10.35;9.52;;;1.70;99.90;;;;;;5075320;28;20221;-71
2023/12/10 05:24:02;;;;;;;9.10;8.40;;;1.80;99.90;;;;;;5072448;28;20221;-70
2023/12/10 05:26:30;;;;;;;9.35;8.65;;;1.90;99.90;;;;;;5081481;28;20202;-71
2023/12/10 05:28:57;;;;;;;8.23;7.53;;;1.90;99.90;;;;;;5077341;28;20568;-71
2023/12/10 05:31:24;;;;;;;7.93;7.32;;;2.00;99.90;;;;;;5079657;28;20224;-70
2023/12/10 05:33:52;;;;;;;8.70;8.00;;;2.10;99.90;;;;;;5078468;28;20707;-71
2023/12/10 05:36:20;;;;;;;8.38;7.78;;;2.10;99.90;;;;;;5082543;28;20734;-72
2023/12/10 05:38:47;;;;;;;8.07;7.38;;;2.10;99.90;;;;;;5082767;28;20229;-72
2023/12/10 05:41:15;;;;;;;7.45;6.85;;;2.20;99.90;;;;;;5081889;28;20210;-71
2023/12/10 05:43:42;;;;;;;6.97;6.40;;;2.20;99.90;;;;;;5071508;28;20738;-71
2023/12/10 05:46:09;;;;;;;8.43;7.70;;;2.20;99.90;;;;;;5084526;28;20854;-71
2023/12/10 05:48:36;;;;;;;7.65;7.05;;;2.20;99.90;;;;;;5080317;28;20210;-72
2023/12/10 05:51:04;;;;;;;7.03;6.53;;;2.30;99.90;;;;;;5089001;28;20221;-71
2023/12/10 05:53:33;;;;;;;8.95;8.20;;;2.20;99.90;;;;;;5078941;28;20197;-72
2023/12/10 05:56:00;;;;;;;8.25;7.55;;;2.20;99.90;;;;;;5084255;28;20197;-71
2023/12/10 05:58:27;;;;;;;10.57;9.57;;;2.10;99.90;;;;;;5084480;28;20224;-71
2023/12/10 06:00:56;;;;;;;9.52;8.63;;;2.00;99.90;;;;;;5079734;28;20225;-71
2023/12/10 06:03:24;;;;;;;9.85;8.95;;;2.00;99.90;;;;;;5084507;28;20201;-72
2023/12/10 06:05:52;;;;;;;9.68;8.88;;;2.00;99.90;;;;;;5078390;28;20697;-72
2023/12/10 06:08:19;;;;;;;8.95;8.15;;;2.00;99.90;;;;;;5079641;28;20248;-73
2023/12/10 06:10:48;;;;;;;9.60;8.80;;;1.90;99.90;;;;;;5080430;28;20221;-72
2023/12/10 06:13:15;;;;;;;8.35;7.65;;;1.90;99.90;;;;;;5077984;28;20198;-72
2023/12/10 06:15:42;;;;;;;8.25;7.57;;;1.90;99.90;;;;;;5078767;28;20252;-72
2023/12/10 06:18:09;;;;;;;7.40;6.80;;;1.90;99.90;;;;;;5082380;28;20204;-72
2023/12/10 06:20:37;;;;;;;7.40;6.78;;;1.90;99.90;;;;;;5078160;28;20404;-72
2023/12/10 06:23:04;;;;;;;8.35;7.65;;;1.90;99.90;;;;;;5075485;28;20240;-72
2023/12/10 06:25:31;;;;;;;8.85;8.15;;;1.90;99.90;;;;;;5081235;28;20236;-71
2023/12/10 06:28:00;;;;;;;8.35;7.75;;;1.80;99.90;;;;;;5080520;28;20221;-71
2023/12/10 06:30:27;;;;;;;8.27;7.50;;;1.80;99.90;;;;;;5078996;28;20233;-72
2023/12/10 06:32:55;;;;;;;7.13;6.57;;;1.80;99.90;;;;;;5082448;28;20205;-71
2023/12/10 06:35:22;;;;;;;7.10;6.57;;;1.80;99.90;;;;;;5084514;28;20245;-71
2023/12/10 06:37:50;;;;;;;8.27;7.68;;;1.80;99.90;;;;;;5081804;28;20206;-71
2023/12/10 06:40:17;;;;;;;9.05;8.32;;;1.80;99.90;;;;;;5077171;28;20252;-71
2023/12/10 06:42:45;;;;;;;9.65;8.82;;;1.80;99.90;;;;;;5079023;28;20205;-72
2023/12/10 06:45:13;;;;;;;9.95;9.00;;;1.80;99.90;;;;;;5079325;28;20225;-71
2023/12/10 06:47:42;;;;;;;9.38;8.57;;;1.80;99.90;;;;;;5074100;28;20217;-72
2023/12/10 06:50:10;;;;;;;9.48;8.70;;;1.80;99.90;;;;;;5093581;28;20221;-72
2023/12/10 06:52:37;;;;;;;8.60;7.90;;;1.70;99.90;;;;;;5078027;28;20206;-72
2023/12/10 06:55:05;;;;;;;9.10;8.40;;;1.70;99.90;;;;;;5082497;28;20244;-72
2023/12/10 06:57:33;;;;;;;8.20;7.50;;;1.70;99.90;;;;;;5083061;28;20201;-72
2023/12/10 07:00:00;;;;;;;6.57;6.07;;;1.70;99.90;;;;;;5080367;28;20618;-72
2023/12/10 07:02:29;;;;;;;7.15;6.55;;;1.80;99.90;;;;;;5077263;28;20630;-72
2023/12/10 07:04:56;;;;;;;7.55;6.95;;;1.90;99.90;;;;;;5074509;28;20224;-72
2023/12/10 07:07:24;;;;;;;6.60;6.10;;;1.90;99.90;;;;;;5075760;28;20202;-72
2023/12/10 07:09:51;;;;;;;6.65;6.13;;;2.00;99.90;;;;;;5082450;28;20753;-72
2023/12/10 07:12:18;;;;;;;6.70;6.20;;;2.00;99.90;;;;;;5082433;28;20252;-72
2023/12/10 07:14:45;;;;;;;6.55;6.07;;;2.10;99.90;;;;;;5079775;28;20645;-71
2023/12/10 07:17:14;;;;;;;6.00;5.57;;;2.10;99.90;;;;;;5081069;28;20620;-72
2023/12/10 07:19:42;;;;;;;6.22;5.80;;;2.10;99.90;;;;;;5079963;28;20305;-71
2023/12/10 07:22:10;;;;;;;6.25;5.85;;;2.20;99.90;;;;;;5081634;28;20686;-71
2023/12/10 07:24:39;;;;;;;6.22;5.82;;;2.20;99.90;;;;;;5077807;28;20218;-72
2023/12/10 07:27:06;;;;;;;7.15;6.65;;;2.20;99.90;;;;;;5079979;28;20190;-71
2023/12/10 07:29:33;;;;;;;6.63;6.22;;;2.20;99.90;;;;;;5082997;28;20277;-71
2023/12/10 07:32:00;;;;;;;6.78;6.28;;;2.20;99.90;;;;;;5078031;28;20225;-72
2023/12/10 07:34:27;;;;;;;6.18;5.78;;;2.30;99.90;;;;;;5080134;28;20643;-71
2023/12/10 07:36:56;;;;;;;7.25;6.72;;;2.30;99.90;;;;;;5085931;28;20201;-72
2023/12/10 07:39:23;;;;;;;6.88;6.30;;;2.30;99.90;;;;;;5077420;28;20220;-72
2023/12/10 07:41:51;;;;;;;7.68;7.07;;;2.30;99.90;;;;;;5083128;28;20266;-71
2023/12/10 07:44:18;;;;;;;7.60;7.00;;;2.40;99.90;;;;;;5077778;28;20221;-72
2023/12/10 07:46:45;;;;;;;7.03;6.50;;;2.30;99.90;;;;;;5081007;28;20212;-71
2023/12/10 07:49:13;;;;;;;6.53;6.03;;;2.30;99.90;;;;;;5064527;28;20597;-71
2023/12/10 07:51:40;;;;;;;7.10;6.53;;;2.40;99.90;;;;;;5081148;28;20229;-72
2023/12/10 07:54:09;;;;;;;6.25;5.78;;;2.40;99.90;;;;;;5081534;28;20210;-72
2023/12/10 07:56:36;;;;;;;6.13;5.72;;;2.40;99.90;;;;;;5081742;28;20213;-72
2023/12/10 07:59:04;;;;;;;6.35;5.85;;;2.40;99.90;;;;;;5075487;28;20222;-72
2023/12/10 08:01:31;;;;;;;7.55;6.95;;;2.50;99.90;;;;;;5076854;28;20226;-72
2023/12/10 08:03:58;;;;;;;9.05;8.35;;;2.50;99.90;;;;;;5074980;28;20209;-72
2023/12/10 08:06:27;;;;;;;9.93;9.13;;;2.50;99.90;;;;;;5074052;28;20245;-71
2023/12/10 08:08:54;;;;;;;8.13;7.53;;;2.50;99.90;;;;;;5077539;28;20218;-71
2023/12/10 08:11:23;;;;;;;8.93;8.15;;;2.50;99.90;;;;;;5075219;28;20805;-71
2023/12/10 08:13:51;;;;;;;9.20;8.50;;;3.10;99.90;;;;;;5075848;28;20228;-73
2023/12/10 08:16:18;;;;;;;13.60;12.50;;;4.10;99.90;;;;;;5079947;28;20202;-73
2023/12/10 08:18:46;;;;;;;13.02;11.93;;;5.20;99.90;;;;;;5078425;28;20449;-73
2023/12/10 08:21:14;;;;;;;10.95;10.05;;;6.10;99.90;;;;;;5078238;28;20726;-73
2023/12/10 08:23:41;;;;;;;10.90;10.10;;;6.70;99.90;;;;;;5085112;28;20246;-72
2023/12/10 08:26:08;;;;;;;10.50;9.60;;;7.20;99.90;;;;;;5077122;28;20198;-72
2023/12/10 08:28:37;;;;;;;10.50;9.65;;;7.60;99.90;;;;;;5081145;28;20266;-72
2023/12/10 08:31:05;;;;;;;9.32;8.52;;;7.90;99.90;;;;;;5077172;28;20209;-72
2023/12/10 08:33:32;;;;;;;9.55;8.75;;;8.30;99.90;;;;;;5079225;28;20207;-72
2023/12/10 08:35:59;;;;;;;9.30;8.50;;;8.60;99.90;;;;;;5081669;28;20396;-72
2023/12/10 08:38:26;;;;;;;9.80;8.13;;;8.80;99.90;;;;;;5077572;28;20205;-73
2023/12/10 08:40:54;;;;;;;8.57;7.88;;;9.30;99.90;;;;;;5076662;28;20226;-72
2023/12/10 08:43:21;;;;;;;8.98;8.27;;;9.90;99.90;;;;;;5079317;28;20209;-73
2023/12/10 08:45:50;;;;;;;8.48;7.88;;;10.40;99.90;;;;;;5080296;28;20198;-71
2023/12/10 08:48:17;;;;;;;8.38;7.68;;;11.00;99.90;;;;;;5075525;28;20208;-74
2023/12/10 08:50:44;;;;;;;7.65;6.95;;;11.50;99.90;;;;;;5079175;28;20222;-72
2023/12/10 08:53:11;;;;;;;6.93;6.40;;;12.20;99.90;;;;;;5087624;28;20202;-72
2023/12/10 08:55:39;;;;;;;6.85;6.35;;;12.80;99.90;;;;;;5078245;28;20249;-71
2023/12/10 08:58:06;;;;;;;7.00;6.50;;;13.30;99.90;;;;;;5080498;28;20202;-72
2023/12/10 09:00:33;;;;;;;8.27;7.65;;;13.00;99.90;;;;;;5085091;28;20766;-72
2023/12/10 09:03:02;;;;;;;6.90;6.40;;;12.90;99.90;;;;;;5087784;28;20208;-73
2023/12/10 09:05:31;;;;;;;6.78;6.18;;;13.10;99.90;;;;;;5086118;28;20236;-72
2023/12/10 09:07:59;;;;;;;7.55;6.95;;;13.70;99.90;;;;;;5084363;28;20194;-73
2023/12/10 09:10:26;;;;;;;7.15;6.55;;;14.70;99.90;;;;;;5083637;28;20222;-72
2023/12/10 09:12:53;;;;;;;6.40;5.90;;;16.40;99.90;;;;;;5083994;28;20251;-73
2023/12/10 09:15:20;;;;;;;7.15;6.45;;;17.80;99.90;;;;;;5076965;28;20228;-73
2023/12/10 09:17:48;;;;;;;6.88;6.35;;;19.10;99.90;;;;;;5087638;28;20590;-73
2023/12/10 09:20:17;;;;;;;6.38;5.90;;;19.90;99.90;;;;;;5082734;28;20210;-72
2023/12/10 09:22:44;;;;;;;6.53;6.00;;;20.60;99.90;;;;;;5088206;28;20229;-72
2023/12/10 09:25:11;;;;;;;7.45;6.85;;;21.20;99.90;;;;;;5086228;28;20219;-72
2023/12/10 09:27:39;;;;;;;6.72;6.13;;;21.50;99.90;;;;;;5084789;28;20205;-72
2023/12/10 09:30:07;;;;;;;6.57;6.05;;;21.80;99.90;;;;;;5081014;28;20218;-72
2023/12/10 09:32:34;;;;;;;7.32;6.70;;;22.10;99.90;;;;;;5081364;28;20703;-71
2023/12/10 09:35:04;;;;;;;6.50;5.90;;;22.10;99.90;;;;;;5080956;28;20582;-73
2023/12/10 09:37:33;;;;;;;6.15;5.65;;;21.60;99.90;;;;;;5087493;28;20197;-72
2023/12/10 09:40:00;;;;;;;6.40;5.90;;;21.70;99.90;;;;;;5075088;28;20229;-72
2023/12/10 09:42:27;;;;;;;6.30;5.70;;;21.90;99.70;;;;;;5069121;28;20217;-72
2023/12/10 09:44:55;;;;;;;6.82;6.22;;;22.50;98.80;;;;;;5085184;28;20220;-72
2023/12/10 09:47:24;;;;;;;7.65;7.00;;;22.40;96.70;;;;;;5088185;28;20204;-72
2023/12/10 09:49:54;;;;;;;7.97;7.20;;;22.00;97.10;;;;;;5078573;28;20319;-72
2023/12/10 09:52:22;;;;;;;7.90;7.30;;;21.00;98.40;;;;;;5085093;28;20229;-71
2023/12/10 09:54:53;;;;;;;8.88;8.18;;;19.50;99.10;;;;;;5079109;28;20225;-71
2023/12/10 09:57:20;;;;;;;10.02;9.13;;;17.50;99.90;;;;;;5084670;28;20373;-71
2023/12/10 09:59:48;;;;;;;8.55;7.85;;;15.50;99.90;;;;;;5082174;27;20220;-72
2023/12/10 10:02:16;;;;;;;8.05;7.28;;;13.70;99.90;;;;;;5086306;28;20232;-72
2023/12/10 10:04:44;;;;;;;8.50;7.80;;;12.80;99.90;;;;;;5079008;28;20244;-72
2023/12/10 10:07:13;;;;;;;8.45;7.75;;;12.80;99.90;;;;;;5085802;28;20715;-71
2023/12/10 10:09:40;;;;;;;8.35;7.65;;;12.80;99.90;;;;;;5079633;28;20723;-71
2023/12/10 10:12:12;;;;;;;8.73;7.93;;;13.00;99.90;;;;;;5080599;28;20217;-71
2023/12/10 10:14:40;;;;;;;9.48;8.57;;;13.00;99.90;;;;;;5075922;28;20240;-71
2023/12/10 10:17:07;;;;;;;8.07;7.38;;;12.90;99.90;;;;;;5081811;27;20206;-71
2023/12/10 10:19:35;;;;;;;8.32;7.70;;;12.80;99.90;;;;;;5076625;28;20214;-71
2023/12/10 10:22:03;;;;;;;7.10;6.53;;;12.80;99.90;;;;;;5079340;28;20237;-71
2023/12/10 10:24:32;;;;;;;7.32;6.72;;;12.60;99.90;;;;;;5077821;28;20216;-71
2023/12/10 10:26:59;;;;;;;8.35;7.65;;;12.60;99.90;;;;;;5081307;28;20209;-71
2023/12/10 10:29:28;;;;;;;7.70;7.10;;;12.30;99.90;;;;;;5081507;28;20231;-71
2023/12/10 10:31:58;;;;;;;7.80;7.20;;;12.10;99.90;;;;;;5083293;28;20223;-71
2023/12/10 10:34:25;;;;;;;8.27;7.57;;;12.10;99.90;;;;;;5079300;28;21543;-71
2023/12/10 10:36:53;;;;;;;7.70;7.00;;;12.10;99.90;;;;;;5084888;28;20320;-71
2023/12/10 10:39:20;;;;;;;8.18;7.47;;;12.30;99.90;;;;;;5075927;28;20218;-71
2023/12/10 10:41:49;;;;;;;8.45;7.75;;;12.20;99.90;;;;;;5082794;28;20244;-71
2023/12/10 10:44:17;;;;;;;7.85;7.20;;;12.00;99.90;;;;;;5082501;28;20230;-71
2023/12/10 10:46:46;;;;;;;8.27;7.57;;;12.30;99.90;;;;;;5079397;28;20197;-71
2023/12/10 10:49:14;;;;;;;7.53;6.93;;;12.40;99.90;;;;;;5078502;28;20217;-71
2023/12/10 10:51:42;;;;;;;8.80;8.00;;;12.60;99.90;;;;;;5079071;28;20228;-71
2023/12/10 10:54:09;;;;;;;8.23;7.53;;;12.80;99.90;;;;;;5075801;28;20279;-71
2023/12/10 10:56:37;;;;;;;7.90;7.30;;;12.70;99.90;;;;;;5080047;28;20256;-71
2023/12/10 10:59:05;;;;;;;6.88;6.28;;;12.80;99.90;;;;;;5080363;28;20272;-71
2023/12/10 11:01:40;;;;;;;6.63;6.03;;;13.00;99.90;;;;;;5081426;28;20670;-71
2023/12/10 11:04:12;;;;;;;7.38;6.78;;;13.10;99.90;;;;;;5083499;28;20293;-71
2023/12/10 11:06:40;;;;;;;7.00;6.50;;;13.10;99.90;;;;;;5077788;28;20194;-71
2023/12/10 11:09:08;;;;;;;7.15;6.55;;;13.30;99.90;;;;;;5078051;28;20217;-71
2023/12/10 11:11:40;;;;;;;6.80;6.20;;;13.30;99.90;;;;;;5080807;28;20217;-71
2023/12/10 11:14:20;;;;;;;6.32;5.82;;;13.30;99.90;;;;;;5070110;28;20782;-71
2023/12/10 11:16:50;;;;;;;7.10;6.50;;;13.50;99.90;;;;;;5057261;28;20203;-71
2023/12/10 11:19:21;;;;;;;7.65;6.95;;;13.50;99.90;;;;;;5065682;28;20217;-71
2023/12/10 11:21:50;;;;;;;6.60;6.10;;;13.60;99.90;;;;;;5076719;28;20308;-72
2023/12/10 11:24:17;;;;;;;6.80;6.20;;;13.50;99.90;;;;;;5075626;28;20305;-71
2023/12/10 11:26:44;;;;;;;6.80;6.25;;;13.30;99.90;;;;;;5078223;28;20853;-71
2023/12/10 11:29:12;;;;;;;6.75;5.95;;;13.10;99.90;;;;;;5079045;28;20268;-72
2023/12/10 11:31:40;;;;;;;7.57;6.97;;;13.10;99.90;;;;;;5082895;28;20225;-71
2023/12/10 11:34:07;;;;;;;6.97;6.45;;;13.00;99.90;;;;;;5076346;28;20217;-72
2023/12/10 11:36:36;;;;;;;7.05;6.45;;;13.00;99.90;;;;;;5079555;28;20212;-71
2023/12/10 11:39:03;;;;;;;6.47;5.88;;;12.70;99.90;;;;;;5078357;28;20221;-71
2023/12/10 11:41:31;;;;;;;6.60;6.05;;;12.30;99.90;;;;;;5069771;28;20229;-71
2023/12/10 11:43:58;;;;;;;6.50;6.00;;;12.20;99.90;;;;;;5074722;28;20778;-71
2023/12/10 11:46:26;;;;;;;6.00;5.60;;;12.30;99.90;;;;;;5072882;28;20573;-71
2023/12/10 11:48:53;;;;;;;6.50;6.00;;;12.40;99.90;;;;;;5079156;28;20579;-71
2023/12/10 11:51:21;;;;;;;5.65;5.25;;;12.60;99.90;;;;;;5084876;28;20295;-71
2023/12/10 11:53:50;;;;;;;6.53;5.72;;;12.50;99.90;;;;;;5082559;28;20209;-72
2023/12/10 11:56:17;;;;;;;6.30;5.80;;;12.40;99.90;;;;;;5076783;28;20263;-72
2023/12/10 11:58:46;;;;;;;6.40;5.90;;;12.20;99.90;;;;;;5078020;28;20308;-71
2023/12/10 12:01:13;;;;;;;6.60;6.10;;;12.10;99.90;;;;;;5076699;28;20225;-70
2023/12/10 12:03:40;;;;;;;6.07;5.57;;;11.90;99.90;;;;;;5082069;28;20301;-73
2023/12/10 12:06:08;;;;;;;6.55;6.00;;;11.60;99.90;;;;;;5082473;28;20213;-71
2023/12/10 12:08:35;;;;;;;6.50;6.00;;;11.60;99.90;;;;;;5080082;28;20198;-71
2023/12/10 12:11:04;;;;;;;5.80;5.30;;;11.50;99.90;;;;;;5074879;28;20218;-72
2023/12/10 12:13:32;;;;;;;6.90;6.30;;;11.60;99.90;;;;;;5078117;28;20193;-72
2023/12/10 12:15:59;;;;;;;6.35;5.85;;;11.70;99.90;;;;;;5079774;28;20604;-72
2023/12/10 12:18:27;;;;;;;6.70;6.20;;;11.60;99.90;;;;;;5078129;28;20204;-72
2023/12/10 12:20:55;;;;;;;5.70;5.20;;;11.50;99.90;;;;;;5081525;28;20217;-72
2023/12/10 12:23:23;;;;;;;5.82;5.32;;;11.40;99.90;;;;;;5085375;28;20678;-72
2023/12/10 12:25:50;;;;;;;6.47;5.95;;;11.50;99.90;;;;;;5082406;28;20591;-72
2023/12/10 12:28:20;;;;;;;6.90;6.38;;;11.60;99.90;;;;;;5077413;28;20587;-71
2023/12/10 12:30:47;;;;;;;6.18;5.63;;;11.50;99.90;;;;;;5079159;28;20289;-71
2023/12/10 12:33:16;;;;;;;6.38;5.88;;;11.40;99.90;;;;;;5083988;28;20202;-72
2023/12/10 12:35:43;;;;;;;6.22;5.72;;;11.50;99.90;;;;;;5082306;28;20312;-72
2023/12/10 12:38:10;;;;;;;13.43;6.00;;;11.60;99.90;;;;;;5084300;28;20205;-72
2023/12/10 12:40:37;;;;;;;5.70;5.20;;;12.00;99.90;;;;;;5080808;28;20221;-72
2023/12/10 12:43:05;;;;;;;6.35;5.88;;;12.40;99.90;;;;;;5084250;28;20202;-72
2023/12/10 12:45:33;;;;;;;5.75;5.35;;;12.60;99.90;;;;;;5087458;28;20655;-72
2023/12/10 12:48:01;;;;;;;6.70;6.05;;;12.80;99.90;;;;;;5084994;28;20202;-72
2023/12/10 12:50:28;;;;;;;6.40;5.85;;;12.60;99.90;;;;;;5083916;28;20279;-72
2023/12/10 12:52:55;;;;;;;6.25;5.75;;;12.50;99.90;;;;;;5082593;28;20259;-72